Time;durP1;ratioP1;P1;durP2;ratioP2;P2;SDS_P1;SDS_P2;PMS_P1;PMS_P2;Temp;Humidity;BMP_temperature;BMP_pressure;BME280_temperature;BME280_humidity;BME280_pressure;Samples;Min_cycle;Max_cycle;Signal;HPM_P1;HPM_P2
2023/05/20 00:01:17;;;;;;;12.77;2.53;;;;;;;9.78;49.19;102756.66;5080921;27;20024;-70
2023/05/20 00:03:49;;;;;;;6.57;1.63;;;;;;;9.80;48.71;102755.81;5046322;28;20043;-69
2023/05/20 00:06:17;;;;;;;3.33;1.60;;;;;;;9.89;48.45;102756.63;5082327;27;20045;-71
2023/05/20 00:08:50;;;;;;;9.27;1.67;;;;;;;9.89;48.18;102752.28;5079556;27;20039;-72
2023/05/20 00:11:17;;;;;;;6.88;1.05;;;;;;;9.94;48.28;102752.22;5085947;27;20572;-69
2023/05/20 00:13:45;;;;;;;3.25;1.30;;;;;;;9.90;47.74;102760.97;5083846;27;20031;-69
2023/05/20 00:16:13;;;;;;;3.72;0.88;;;;;;;10.03;47.08;102752.16;5081911;28;20400;-68
2023/05/20 00:18:50;;;;;;;1.63;0.70;;;;;;;10.19;46.50;102742.44;5082083;27;20031;-70
2023/05/20 00:21:18;;;;;;;4.85;0.70;;;;;;;10.22;46.71;102748.53;5085511;27;20519;-69
2023/05/20 00:23:46;;;;;;;6.10;0.75;;;;;;;10.19;46.22;102755.50;5063509;27;20046;-69
2023/05/20 00:26:19;;;;;;;3.60;0.75;;;;;;;10.38;45.67;102754.47;5079127;27;20030;-69
2023/05/20 00:28:58;;;;;;;2.28;0.90;;;;;;;10.39;45.38;102755.34;5080891;27;20075;-70
2023/05/20 00:31:26;;;;;;;1.77;0.43;;;;;;;10.45;45.47;102755.28;5082832;27;20036;-70
2023/05/20 00:33:57;;;;;;;3.20;0.52;;;;;;;10.47;45.16;102752.66;5075551;27;20051;-70
2023/05/20 00:36:36;;;;;;;2.22;0.47;;;;;;;10.33;44.83;102750.19;5082422;27;20039;-69
2023/05/20 00:39:07;;;;;;;2.25;0.73;;;;;;;10.13;45.34;102748.59;5068280;27;20444;-72
2023/05/20 00:41:38;;;;;;;5.25;0.38;;;;;;;10.48;44.45;102752.66;5077435;27;20046;-73
2023/05/20 00:44:16;;;;;;;;;;;;;;;;;;;;;
2023/05/20 00:46:42;;;;;;;2.00;0.30;;;;;;;10.52;43.76;102751.72;5080510;27;20376;-70
2023/05/20 00:49:13;;;;;;;7.45;1.27;;;;;;;10.55;43.19;102751.72;5066306;28;20088;-70
2023/05/20 00:51:48;;;;;;;2.70;0.65;;;;;;;10.48;42.49;102750.06;5082386;27;20064;-72
2023/05/20 00:54:16;;;;;;;3.47;0.47;;;;;;;10.36;42.70;102740.56;5079140;28;20519;-72
2023/05/20 00:56:47;;;;;;;1.70;0.40;;;;;;;10.46;42.38;102736.13;5077485;27;20223;-70
2023/05/20 00:59:16;;;;;;;1.55;0.50;;;;;;;10.55;42.09;102733.41;5081691;27;20039;-72
2023/05/20 01:01:46;;;;;;;2.05;0.50;;;;;;;10.46;41.83;102737.84;5081602;28;20036;-71
2023/05/20 01:04:21;;;;;;;0.88;0.20;;;;;;;10.50;41.70;102731.72;5067271;27;20109;-72
2023/05/20 01:06:54;;;;;;;3.47;0.40;;;;;;;10.59;41.31;102731.63;5082360;28;20678;-71
2023/05/20 01:09:23;;;;;;;1.23;0.40;;;;;;;10.58;41.71;102737.75;5096412;27;20875;-71
2023/05/20 01:12:12;;;;;;;1.00;0.30;;;;;;;10.37;41.64;102730.97;5080694;27;20791;-72
2023/05/20 01:14:59;;;;;;;1.70;0.30;;;;;;;10.54;41.25;102729.06;5075040;27;20038;-71
2023/05/20 01:17:36;;;;;;;3.75;0.55;;;;;;;10.46;41.21;102725.66;5076897;27;20047;-71
2023/05/20 01:20:12;;;;;;;1.90;0.30;;;;;;;10.37;41.03;102737.06;5089855;28;20455;-71
2023/05/20 01:22:52;;;;;;;3.53;1.40;;;;;;;10.45;41.21;102731.75;5075071;27;20063;-71
2023/05/20 01:25:25;;;;;;;3.72;0.50;;;;;;;10.48;41.25;102723.91;5080323;27;20113;-71
2023/05/20 01:27:55;;;;;;;1.00;0.30;;;;;;;10.29;41.27;102724.97;5081046;27;20039;-70
2023/05/20 01:30:27;;;;;;;1.00;0.30;;;;;;;10.42;41.21;102723.97;5084081;27;20049;-71
2023/05/20 01:33:10;;;;;;;3.17;0.40;;;;;;;10.42;40.65;102724.81;5037504;27;21997;-72
2023/05/20 01:35:36;;;;;;;4.05;0.30;;;;;;;10.47;40.76;102721.28;5080421;27;20023;-72
2023/05/20 01:38:12;;;;;;;1.52;0.20;;;;;;;10.41;40.53;102722.22;5079365;27;20036;-71
2023/05/20 01:40:41;;;;;;;1.00;0.20;;;;;;;10.33;40.31;102716.22;5078684;27;20059;-71
2023/05/20 01:43:18;;;;;;;1.38;0.55;;;;;;;10.33;40.21;102718.81;5051925;28;20047;-71
2023/05/20 01:45:49;;;;;;;6.90;0.30;;;;;;;10.29;40.16;102719.72;5081603;27;20036;-71
2023/05/20 01:48:17;;;;;;;0.55;0.10;;;;;;;10.24;39.67;102709.31;5084172;28;20523;-71
2023/05/20 01:50:45;;;;;;;1.38;0.22;;;;;;;10.34;39.53;102716.16;5094789;27;20471;-72
2023/05/20 01:53:20;;;;;;;4.85;0.50;;;;;;;10.39;39.21;102716.13;5071875;27;20042;-72
2023/05/20 01:55:58;;;;;;;2.60;0.28;;;;;;;10.33;38.93;102722.28;5079938;27;20480;-71
2023/05/20 01:58:25;;;;;;;5.07;0.32;;;;;;;10.33;39.05;102724.91;5082992;27;20038;-71
2023/05/20 02:00:55;;;;;;;1.85;0.20;;;;;;;10.42;39.17;102726.56;5076903;28;20028;-71
2023/05/20 02:03:34;;;;;;;1.27;0.20;;;;;;;10.45;39.09;102723.91;5091417;27;20092;-71
2023/05/20 02:06:07;;;;;;;0.93;0.22;;;;;;;10.40;38.56;102725.72;5080058;27;20024;-70
2023/05/20 02:08:37;;;;;;;3.58;0.20;;;;;;;10.33;38.74;102721.44;5047821;28;20105;-71
2023/05/20 02:11:02;;;;;;;0.93;0.20;;;;;;;10.38;38.97;102727.47;5067958;28;20039;-72
2023/05/20 02:13:40;;;;;;;;;;;;;;;;;;;;;
2023/05/20 02:16:08;;;;;;;2.25;0.22;;;;;;;10.30;38.18;102730.16;5095688;27;20034;-72
2023/05/20 02:18:38;;;;;;;1.85;0.17;;;;;;;10.18;38.11;102730.28;5064478;28;20036;-71
2023/05/20 02:21:09;;;;;;;2.58;0.20;;;;;;;10.13;38.66;102727.69;5086555;27;20028;-71
2023/05/20 02:23:57;;;;;;;0.60;0.20;;;;;;;10.10;38.53;102719.91;5093539;27;20039;-72
2023/05/20 02:26:26;;;;;;;0.65;0.13;;;;;;;10.21;38.30;102727.63;5082295;27;20023;-71
2023/05/20 02:28:53;;;;;;;0.40;0.10;;;;;;;10.26;38.49;102731.09;5032459;28;20040;-71
2023/05/20 02:31:35;;;;;;;1.17;0.20;;;;;;;10.25;38.66;102731.94;5082882;27;20774;-71
2023/05/20 02:34:03;;;;;;;0.82;0.10;;;;;;;10.04;38.59;102726.94;5075640;27;20156;-71
2023/05/20 02:36:31;;;;;;;1.75;0.17;;;;;;;10.13;38.71;102732.06;5076653;28;20035;-71
2023/05/20 02:39:02;;;;;;;1.97;0.20;;;;;;;10.07;38.66;102721.66;5085909;27;20099;-70
2023/05/20 02:41:30;;;;;;;1.17;0.30;;;;;;;9.83;38.68;102717.50;5083708;28;20034;-71
2023/05/20 02:44:03;;;;;;;1.88;0.35;;;;;;;9.74;39.21;102719.25;5081556;28;20425;-70
2023/05/20 02:46:38;;;;;;;1.50;0.30;;;;;;;9.78;39.27;102725.34;5080827;28;20040;-72
2023/05/20 02:49:04;;;;;;;2.72;0.30;;;;;;;9.65;39.98;102724.53;5073794;28;20469;-70
2023/05/20 02:51:32;;;;;;;1.00;0.20;;;;;;;9.59;39.85;102725.47;5081606;28;20039;-71
2023/05/20 02:53:57;;;;;;;1.13;0.20;;;;;;;9.46;40.02;102729.03;5084731;27;20050;-71
2023/05/20 02:56:33;;;;;;;1.80;0.10;;;;;;;9.21;40.83;102736.13;5079753;28;20043;-72
2023/05/20 02:59:00;;;;;;;0.82;0.13;;;;;;;9.22;40.91;102729.16;5059789;28;20072;-70
2023/05/20 03:01:38;;;;;;;1.20;0.25;;;;;;;9.15;41.31;102728.31;5077355;28;20277;-72
2023/05/20 03:04:11;;;;;;;1.92;0.40;;;;;;;9.14;40.81;102727.44;5068615;28;20039;-70
2023/05/20 03:06:43;;;;;;;0.57;0.10;;;;;;;8.96;41.47;102725.78;5082546;28;20031;-71
2023/05/20 03:09:19;;;;;;;2.88;0.10;;;;;;;8.96;41.65;102732.72;5080905;28;20040;-71
2023/05/20 03:11:46;;;;;;;1.60;0.95;;;;;;;8.76;42.06;102736.28;5073481;28;20028;-72
2023/05/20 03:14:11;;;;;;;1.13;0.25;;;;;;;8.66;42.39;102733.66;5076557;28;20032;-71
2023/05/20 03:16:39;;;;;;;2.58;0.20;;;;;;;8.60;42.57;102739.75;5079092;28;20511;-72
2023/05/20 03:19:05;;;;;;;0.85;0.30;;;;;;;8.47;42.64;102738.91;5065799;28;20415;-71
2023/05/20 03:21:45;;;;;;;1.45;0.38;;;;;;;8.37;42.71;102739.78;5083309;28;20080;-71
2023/05/20 03:24:10;;;;;;;1.20;0.40;;;;;;;8.38;42.90;102733.69;5026757;28;20056;-71
2023/05/20 03:26:49;;;;;;;1.52;0.40;;;;;;;8.38;43.27;102738.91;5077503;27;20110;-71
2023/05/20 03:29:25;;;;;;;1.58;0.30;;;;;;;8.33;43.15;102735.44;5080646;27;20086;-72
2023/05/20 03:32:00;;;;;;;1.05;0.30;;;;;;;8.27;43.50;102733.72;5053347;28;20130;-71
2023/05/20 03:34:29;;;;;;;0.77;0.22;;;;;;;8.10;43.96;102731.09;5074221;28;20040;-71
2023/05/20 03:36:56;;;;;;;1.52;0.30;;;;;;;8.03;44.17;102731.97;5097937;27;20028;-71
2023/05/20 03:39:27;;;;;;;2.65;0.40;;;;;;;8.07;44.32;102728.50;5083700;28;20042;-71
2023/05/20 03:41:55;;;;;;;1.95;0.68;;;;;;;8.02;44.26;102729.38;5090320;27;20032;-71
2023/05/20 03:44:23;;;;;;;4.57;0.70;;;;;;;7.93;44.86;102731.09;5096344;27;20040;-72
2023/05/20 03:46:48;;;;;;;3.35;0.50;;;;;;;8.05;44.70;102729.38;5079489;27;20031;-72
2023/05/20 03:49:26;;;;;;;1.13;0.32;;;;;;;8.01;45.21;102738.91;5094624;27;20027;-71
2023/05/20 03:51:57;;;;;;;2.88;0.20;;;;;;;8.02;44.66;102730.22;5096667;27;20034;-72
2023/05/20 03:54:30;;;;;;;2.35;0.43;;;;;;;8.06;44.85;102737.19;5092710;28;20466;-70
2023/05/20 03:57:09;;;;;;;2.63;0.20;;;;;;;8.08;44.29;102737.19;5084310;28;20036;-71
2023/05/20 03:59:41;;;;;;;2.80;0.30;;;;;;;8.14;44.44;102735.44;5082761;27;20035;-71
2023/05/20 04:02:07;;;;;;;0.82;0.20;;;;;;;8.20;44.07;102737.16;5070285;28;20274;-70
2023/05/20 04:04:42;;;;;;;2.38;0.32;;;;;;;8.33;44.14;102738.03;5086123;27;20604;-71
2023/05/20 04:07:10;;;;;;;3.70;0.30;;;;;;;8.45;43.75;102731.94;5051193;28;20051;-70
2023/05/20 04:09:38;;;;;;;0.30;0.20;;;;;;;8.48;43.19;102739.78;5103411;27;20028;-71
2023/05/20 04:12:06;;;;;;;1.08;0.28;;;;;;;8.65;43.08;102740.63;5067027;28;20563;-70
2023/05/20 04:14:35;;;;;;;4.18;0.28;;;;;;;8.70;43.11;102735.38;5083779;27;20990;-71
2023/05/20 04:17:04;;;;;;;0.63;0.20;;;;;;;8.65;42.91;102738.00;5093896;27;20040;-70
2023/05/20 04:19:45;;;;;;;1.27;0.38;;;;;;;8.68;43.05;102739.75;5085215;27;20576;-70
2023/05/20 04:22:12;;;;;;;2.58;0.30;;;;;;;8.59;43.66;102737.16;5072311;27;20051;-71
2023/05/20 04:24:46;;;;;;;2.40;0.40;;;;;;;8.70;43.79;102738.00;5082072;27;20062;-71
2023/05/20 04:27:16;;;;;;;1.30;0.25;;;;;;;8.82;43.53;102740.59;5067034;28;20043;-71
2023/05/20 04:29:44;;;;;;;1.00;0.28;;;;;;;8.83;43.66;102733.63;5087661;27;20692;-72
2023/05/20 04:32:16;;;;;;;2.58;0.20;;;;;;;8.90;43.40;102731.00;5074630;28;20043;-71
2023/05/20 04:34:47;;;;;;;;;;;;;;;8.93;43.60;102735.34;5072021;28;20028;-72
2023/05/20 04:37:13;;;;;;;2.97;0.32;;;;;;;8.92;43.80;102738.84;5078742;27;19945;-71
2023/05/20 04:39:48;;;;;;;2.72;0.10;;;;;;;9.03;43.75;102734.47;5079028;27;20054;-71
2023/05/20 04:42:23;;;;;;;1.05;0.20;;;;;;;9.15;43.52;102729.16;5068642;27;20434;-71
2023/05/20 04:45:00;;;;;;;2.75;0.38;;;;;;;9.28;43.83;102734.34;5082555;27;20034;-70
2023/05/20 04:47:43;;;;;;;1.00;0.25;;;;;;;9.28;43.68;102730.00;5069630;27;20050;-71
2023/05/20 04:50:12;;;;;;;1.23;0.20;;;;;;;9.34;43.42;102729.97;5095911;27;20051;-70
2023/05/20 04:52:44;;;;;;;2.63;0.20;;;;;;;9.84;42.99;102729.69;5071298;27;20748;-70
2023/05/20 04:55:12;;;;;;;1.63;0.40;;;;;;;10.63;41.34;102736.78;5079818;27;20489;-71
2023/05/20 04:57:46;;;;;;;2.65;0.35;;;;;;;11.57;39.46;102740.88;5084935;27;20270;-72
2023/05/20 05:00:24;;;;;;;2.22;0.50;;;;;;;12.59;38.06;102734.84;5085870;27;20027;-71
2023/05/20 05:03:08;;;;;;;;;;;;;;;;;;;;;
2023/05/20 05:05:41;;;;;;;2.22;0.40;;;;;;;16.19;31.60;102725.44;5082677;27;20080;-71
2023/05/20 05:08:21;;;;;;;;;;;;;;;;;;;;;
2023/05/20 05:10:49;;;;;;;3.42;0.30;;;;;;;17.30;28.65;102722.25;5080861;27;20087;-72
2023/05/20 05:13:18;;;;;;;2.28;0.28;;;;;;;17.71;27.60;102725.03;5079866;27;20044;-71
2023/05/20 05:15:43;;;;;;;2.83;0.20;;;;;;;18.31;26.89;102724.31;5083664;28;20366;-72
2023/05/20 05:18:31;;;;;;;1.13;0.20;;;;;;;18.81;25.62;102719.41;5078252;27;20042;-72
2023/05/20 05:21:06;;;;;;;3.05;0.20;;;;;;;18.87;25.87;102721.78;5084582;28;21323;-71
2023/05/20 05:23:43;;;;;;;0.70;0.10;;;;;;;18.84;25.74;102721.91;5070617;28;20159;-73
2023/05/20 05:26:12;;;;;;;0.30;0.10;;;;;;;18.76;24.86;102726.69;5080325;27;20422;-72
2023/05/20 05:28:47;;;;;;;0.70;0.17;;;;;;;18.95;24.89;102724.09;5061825;27;20043;-72
2023/05/20 05:31:12;;;;;;;2.13;0.20;;;;;;;18.20;25.46;102730.06;5083905;28;20039;-71
2023/05/20 05:33:40;;;;;;;3.53;0.20;;;;;;;18.16;25.69;102731.09;5082075;28;20501;-72
2023/05/20 05:36:11;;;;;;;1.38;0.10;;;;;;;19.27;24.50;102727.84;5061973;28;20034;-72
2023/05/20 05:38:36;;;;;;;2.15;0.20;;;;;;;18.95;24.61;102726.75;5073571;27;20055;-71
2023/05/20 05:41:07;;;;;;;2.53;0.20;;;;;;;18.41;25.39;102729.16;5084343;27;20540;-72
2023/05/20 05:43:40;;;;;;;3.00;0.25;;;;;;;17.77;26.35;102726.56;5073008;27;20036;-72
2023/05/20 05:46:08;;;;;;;4.45;0.90;;;;;;;17.46;26.34;102727.78;5078913;27;20020;-72
2023/05/20 05:48:38;;;;;;;2.25;0.57;;;;;;;17.91;25.85;102726.84;5057861;27;20035;-72
2023/05/20 05:51:06;;;;;;;1.40;0.30;;;;;;;18.12;25.66;102726.84;5060472;28;20028;-71
2023/05/20 05:53:40;;;;;;;1.05;0.10;;;;;;;18.68;25.44;102732.34;5095562;27;20651;-71
2023/05/20 05:56:11;;;;;;;1.02;0.20;;;;;;;19.05;24.35;102719.22;5082819;27;20027;-71
2023/05/20 05:58:41;;;;;;;0.98;0.20;;;;;;;19.17;24.27;102723.09;5066254;27;20074;-73
2023/05/20 06:01:20;;;;;;;2.63;0.30;;;;;;;19.08;24.18;102714.63;5082816;27;20759;-73
2023/05/20 06:03:53;;;;;;;1.75;0.20;;;;;;;19.62;23.83;102713.88;5053949;28;20106;-70
2023/05/20 06:06:25;;;;;;;0.80;0.20;;;;;;;19.85;24.09;102723.31;5082903;27;20024;-70
2023/05/20 06:08:57;;;;;;;0.88;0.30;;;;;;;19.99;23.38;102715.50;5045564;28;20040;-71
2023/05/20 06:11:38;;;;;;;2.90;0.30;;;;;;;19.52;23.86;102721.38;5065840;28;20030;-70
2023/05/20 06:14:05;;;;;;;2.30;0.20;;;;;;;19.54;23.85;102722.16;5058572;27;20093;-71
2023/05/20 06:16:36;;;;;;;0.60;0.30;;;;;;;19.65;24.01;102714.56;5079132;28;20108;-70
2023/05/20 06:19:04;;;;;;;1.65;0.20;;;;;;;20.72;22.91;102718.75;5078449;28;20208;-70
2023/05/20 06:21:31;;;;;;;1.48;0.10;;;;;;;21.32;23.52;102714.63;5080218;28;20035;-71
2023/05/20 06:23:59;;;;;;;4.45;0.30;;;;;;;21.59;22.55;102714.84;5053404;27;20175;-71
2023/05/20 06:26:31;;;;;;;1.13;0.32;;;;;;;20.87;23.54;102714.44;5098648;27;20091;-70
2023/05/20 06:29:01;;;;;;;2.22;0.20;;;;;;;21.02;22.53;102715.41;5080643;28;20067;-70
2023/05/20 06:31:34;;;;;;;0.73;0.17;;;;;;;22.15;21.43;102717.78;5075602;27;20032;-71
2023/05/20 06:34:03;;;;;;;;;;;;;;;21.30;22.21;102724.47;5076698;28;20040;-71
2023/05/20 06:36:32;;;;;;;0.60;0.10;;;;;;;20.05;23.12;102722.31;5067470;28;19931;-70
2023/05/20 06:39:03;;;;;;;1.20;0.20;;;;;;;20.29;23.49;102726.38;5070286;27;20046;-69
2023/05/20 06:41:39;;;;;;;0.63;0.10;;;;;;;20.62;23.00;102716.69;5082425;27;20039;-70
2023/05/20 06:44:13;;;;;;;1.35;0.20;;;;;;;21.17;22.96;102715.47;5026434;28;20043;-70
2023/05/20 06:47:05;;;;;;;0.68;0.20;;;;;;;21.77;22.23;102718.25;5068502;28;20040;-71
2023/05/20 06:49:34;;;;;;;0.60;0.10;;;;;;;21.12;22.94;102715.75;5053057;28;20032;-71
2023/05/20 06:52:14;;;;;;;;;;;;;;;21.63;22.36;102704.91;5070572;28;20364;-71
2023/05/20 06:54:46;;;;;;;2.40;0.20;;;;;;;23.12;21.43;102698.41;5069087;28;20433;-70
2023/05/20 06:57:22;;;;;;;0.50;0.20;;;;;;;22.83;22.33;102703.84;5085935;27;20492;-70
2023/05/20 06:59:52;;;;;;;2.13;0.40;;;;;;;22.54;21.73;102700.31;5070711;28;20759;-71
2023/05/20 07:02:28;;;;;;;3.13;0.65;;;;;;;22.10;22.00;102704.75;5086954;27;20031;-71
2023/05/20 07:05:03;;;;;;;3.20;0.35;;;;;;;22.11;21.96;102705.59;5083506;27;20039;-70
2023/05/20 07:07:28;;;;;;;0.98;0.40;;;;;;;22.38;23.07;102697.72;5100976;27;20370;-71
2023/05/20 07:09:57;;;;;;;5.05;0.35;;;;;;;22.38;22.25;102692.38;5070547;28;20035;-71
2023/05/20 07:12:23;;;;;;;1.98;0.28;;;;;;;21.72;22.65;102696.38;5078204;27;20551;-71
2023/05/20 07:14:56;;;;;;;1.65;0.30;;;;;;;22.47;22.68;102693.63;5079844;28;20043;-70
2023/05/20 07:17:30;;;;;;;2.20;0.52;;;;;;;22.55;21.60;102684.22;5084913;27;20714;-71
2023/05/20 07:19:58;;;;;;;2.83;0.20;;;;;;;22.91;21.37;102685.50;5082850;27;20039;-71
2023/05/20 07:22:29;;;;;;;0.90;0.25;;;;;;;23.04;21.36;102684.72;5065799;27;20401;-71
2023/05/20 07:25:07;;;;;;;0.85;0.20;;;;;;;23.83;20.41;102690.13;5055128;28;20024;-70
2023/05/20 07:27:35;;;;;;;3.35;0.52;;;;;;;24.16;20.42;102682.56;5067718;27;20362;-71
2023/05/20 07:30:15;;;;;;;2.08;0.40;;;;;;;23.61;21.18;102681.84;5082488;27;20046;-71
2023/05/20 07:32:59;;;;;;;1.85;0.20;;;;;;;23.78;21.17;102684.22;5060756;28;20408;-70
2023/05/20 07:35:37;;;;;;;4.20;0.68;;;;;;;23.29;20.75;102676.84;5083217;27;20571;-71
2023/05/20 07:38:05;;;;;;;4.90;0.82;;;;;;;23.22;21.45;102667.50;5074527;27;20046;-71
2023/05/20 07:40:37;;;;;;;2.00;0.32;;;;;;;23.01;22.07;102667.13;5079588;27;20042;-72
2023/05/20 07:43:03;;;;;;;2.05;0.20;;;;;;;23.61;21.73;102661.34;5067166;28;20127;-70
2023/05/20 07:45:29;;;;;;;1.77;0.32;;;;;;;24.42;20.78;102665.56;5079144;27;20028;-72
2023/05/20 07:48:07;;;;;;;2.40;0.32;;;;;;;24.41;20.70;102660.28;5085170;27;20249;-70
2023/05/20 07:50:43;;;;;;;1.10;0.30;;;;;;;24.38;20.64;102663.19;5081592;28;20028;-71
2023/05/20 07:53:25;;;;;;;;;;;;;;;;;;;;;
2023/05/20 07:56:01;;;;;;;1.63;0.32;;;;;;;23.51;22.18;102657.59;5082044;27;20040;-72
2023/05/20 07:58:36;;;;;;;1.02;0.40;;;;;;;23.27;22.09;102662.75;5069051;28;20586;-70
2023/05/20 08:01:03;;;;;;;;;;;;;;;24.41;21.09;102663.88;5070183;28;20860;-71
2023/05/20 08:03:32;;;;;;;2.00;0.55;;;;;;;24.52;20.27;102660.41;5058164;27;19919;-70
2023/05/20 08:06:12;;;;;;;3.78;0.50;;;;;;;24.79;20.38;102652.19;5097931;27;20028;-72
2023/05/20 08:08:47;;;;;;;3.13;0.60;;;;;;;24.72;20.62;102660.78;5076632;27;20413;-70
2023/05/20 08:11:21;;;;;;;1.83;0.20;;;;;;;25.07;20.15;102657.38;5081930;27;20028;-70
2023/05/20 08:14:10;;;;;;;1.10;0.30;;;;;;;24.72;20.28;102648.28;5072347;27;20127;-71
2023/05/20 08:16:43;;;;;;;3.30;0.43;;;;;;;24.51;20.63;102634.66;5079417;27;20365;-72
2023/05/20 08:19:16;;;;;;;2.38;0.40;;;;;;;24.79;20.23;102643.34;5074337;27;20611;-70
2023/05/20 08:21:56;;;;;;;2.38;0.30;;;;;;;24.31;21.42;102649.41;5071324;27;20031;-71
2023/05/20 08:24:31;;;;;;;4.13;0.40;;;;;;;24.84;20.98;102646.53;5065857;27;20054;-72
2023/05/20 08:26:57;;;;;;;1.23;0.40;;;;;;;24.15;21.29;102644.31;5056716;27;20032;-72
2023/05/20 08:29:27;;;;;;;2.55;0.60;;;;;;;24.55;21.22;102644.19;5063913;28;20031;-70
2023/05/20 08:32:03;;;;;;;1.20;0.35;;;;;;;24.61;20.88;102641.03;5082907;28;21041;-70
2023/05/20 08:34:35;;;;;;;2.85;0.30;;;;;;;24.65;21.74;102639.84;5079616;27;20630;-71
2023/05/20 08:37:10;;;;;;;2.90;0.52;;;;;;;24.56;21.72;102645.88;5085499;27;20040;-72
2023/05/20 08:39:48;;;;;;;1.25;0.35;;;;;;;23.61;22.57;102631.13;5083271;27;20041;-71
2023/05/20 08:42:22;;;;;;;;;;;;;;;23.22;23.14;102638.19;5075656;27;20319;-71
2023/05/20 08:44:51;;;;;;;2.95;0.30;;;;;;;23.63;22.27;102634.53;5082603;27;19952;-70
2023/05/20 08:47:23;;;;;;;2.08;0.40;;;;;;;23.67;22.42;102630.72;5054381;28;20062;-71
2023/05/20 08:49:56;;;;;;;7.30;0.50;;;;;;;23.80;22.93;102631.56;5074315;27;20473;-71
2023/05/20 08:52:31;;;;;;;2.38;0.68;;;;;;;24.21;21.79;102630.53;5059875;27;21143;-72
2023/05/20 08:55:24;;;;;;;2.25;0.47;;;;;;;24.91;20.93;102626.41;5083258;28;20081;-70
2023/05/20 08:58:05;;;;;;;3.70;0.50;;;;;;;23.91;22.62;102624.69;5069308;27;20093;-72
2023/05/20 09:00:41;;;;;;;3.83;0.70;;;;;;;22.98;23.56;102622.81;5083935;27;20041;-72
2023/05/20 09:03:11;;;;;;;5.57;0.50;;;;;;;23.13;23.66;102625.47;5070079;27;20044;-71
2023/05/20 09:05:41;;;;;;;3.53;0.40;;;;;;;22.63;23.69;102616.25;5079366;27;20050;-72
2023/05/20 09:08:16;;;;;;;1.73;0.35;;;;;;;22.63;24.89;102617.13;5068547;28;20472;-71
2023/05/20 09:10:45;;;;;;;2.08;0.93;;;;;;;22.16;25.26;102621.00;5078107;27;20031;-71
2023/05/20 09:13:10;;;;;;;4.20;0.68;;;;;;;22.45;25.41;102616.50;5067922;27;20559;-72
2023/05/20 09:15:41;;;;;;;2.33;0.52;;;;;;;21.65;25.12;102613.41;5077242;27;20038;-71
2023/05/20 09:18:51;;;;;;;2.05;0.40;;;;;;;21.36;25.58;102618.59;5075447;27;20043;-70
2023/05/20 09:21:41;;;;;;;3.88;0.95;;;;;;;21.05;26.56;102621.34;5078696;28;20027;-72
2023/05/20 09:24:06;;;;;;;1.50;0.60;;;;;;;21.01;28.08;102610.00;5053046;28;20039;-69
2023/05/20 09:26:35;;;;;;;2.35;0.50;;;;;;;20.84;27.97;102608.34;5081978;27;20503;-71
2023/05/20 09:29:03;;;;;;;4.10;0.70;;;;;;;20.32;28.86;102613.81;5049969;28;20117;-72
2023/05/20 09:31:37;;;;;;;6.40;1.25;;;;;;;19.82;29.23;102617.38;5083574;27;20034;-72
2023/05/20 09:34:03;;;;;;;4.10;0.80;;;;;;;19.61;29.72;102609.53;5075107;28;20090;-70
2023/05/20 09:36:36;;;;;;;3.72;0.80;;;;;;;19.00;30.95;102617.88;5074430;27;20036;-71
2023/05/20 09:39:12;;;;;;;5.03;1.00;;;;;;;18.96;30.74;102598.63;5099912;27;20043;-72
2023/05/20 09:42:11;;;;;;;1.50;0.60;;;;;;;19.11;30.67;102607.63;5079043;28;20568;-71
2023/05/20 09:44:48;;;;;;;2.63;0.85;;;;;;;19.46;31.92;102602.38;5075526;27;21296;-72
2023/05/20 09:47:17;;;;;;;1.67;0.60;;;;;;;19.59;30.79;102607.91;5073169;27;20039;-71
2023/05/20 09:49:51;;;;;;;1.65;0.52;;;;;;;19.73;30.44;102609.88;5079709;27;20023;-71
2023/05/20 09:52:22;;;;;;;1.80;0.60;;;;;;;19.53;30.02;102602.91;5075910;27;20079;-70
2023/05/20 09:54:55;;;;;;;1.83;0.67;;;;;;;18.94;31.04;102599.63;5079565;27;20306;-70
2023/05/20 09:57:25;;;;;;;6.13;1.40;;;;;;;19.27;31.65;102602.41;5081658;28;20047;-70
2023/05/20 10:00:03;;;;;;;2.88;0.45;;;;;;;19.80;29.74;102595.34;5085009;27;20027;-71
2023/05/20 10:02:50;;;;;;;1.45;0.40;;;;;;;19.14;29.43;102586.25;5059750;27;20055;-71
2023/05/20 10:05:40;;;;;;;3.47;1.00;;;;;;;19.01;31.14;102585.16;5082936;27;20015;-70
2023/05/20 10:08:32;;;;;;;2.95;0.60;;;;;;;19.43;29.91;102582.13;5075158;28;20036;-71
2023/05/20 10:11:32;;;;;;;7.80;0.70;;;;;;;18.59;31.00;102578.31;5082295;28;20035;-71
2023/05/20 10:14:37;;;;;;;5.75;1.05;;;;;;;18.79;30.98;102586.19;5049848;28;20039;-71
2023/05/20 10:17:27;;;;;;;3.70;0.98;;;;;;;19.17;30.10;102575.53;5065884;27;20210;-71
2023/05/20 10:20:10;;;;;;;;;;;;;;;;;;;;;
2023/05/20 10:22:59;;;;;;;3.13;1.05;;;;;;;19.43;30.70;102581.28;5060639;27;20047;-71
2023/05/20 10:26:15;;;;;;;3.30;0.90;;;;;;;19.57;28.98;102578.84;5056181;28;20031;-72
2023/05/20 10:28:51;;;;;;;5.97;0.90;;;;;;;19.42;30.35;102563.69;5069767;27;20175;-71
2023/05/20 10:31:24;;;;;;;2.45;0.95;;;;;;;19.48;28.98;102566.03;5082007;28;20032;-71
2023/05/20 10:34:00;;;;;;;2.55;0.68;;;;;;;18.99;29.83;102555.22;5071589;27;20431;-71
2023/05/20 10:36:31;;;;;;;3.65;0.93;;;;;;;19.49;28.76;102562.44;5074795;28;20028;-70
2023/05/20 10:39:02;;;;;;;3.38;0.88;;;;;;;19.25;29.45;102545.97;5061986;28;20047;-70
2023/05/20 10:41:42;;;;;;;4.80;0.75;;;;;;;19.06;30.03;102546.91;5076636;28;20047;-72
2023/05/20 10:44:23;;;;;;;2.90;0.90;;;;;;;19.63;29.43;102546.66;5076337;28;20775;-70
2023/05/20 10:47:08;;;;;;;3.25;0.77;;;;;;;19.47;28.79;102535.13;5070232;27;20566;-70
2023/05/20 10:49:36;;;;;;;4.57;0.90;;;;;;;19.61;28.51;102527.31;5076539;28;20681;-70
2023/05/20 10:52:43;;;;;;;9.40;0.77;;;;;;;20.44;28.23;102519.34;5047011;28;20787;-71
2023/05/20 10:55:18;;;;;;;1.70;0.82;;;;;;;20.38;27.51;102519.72;5070542;28;20086;-71
2023/05/20 10:57:56;;;;;;;1.48;0.50;;;;;;;19.95;27.31;102522.91;5058966;28;20044;-70
2023/05/20 11:00:24;;;;;;;6.43;0.50;;;;;;;20.09;27.54;102525.66;5054555;28;20506;-72
2023/05/20 11:02:55;;;;;;;4.97;0.85;;;;;;;20.60;27.14;102517.56;5046792;28;20610;-72
2023/05/20 11:05:30;;;;;;;3.90;0.93;;;;;;;20.58;27.50;102513.28;5076666;28;20489;-70
2023/05/20 11:08:18;;;;;;;1.63;0.70;;;;;;;20.08;27.19;102515.09;5059032;27;20032;-70
2023/05/20 11:10:46;;;;;;;4.45;0.82;;;;;;;20.31;27.79;102511.25;5056280;28;20611;-71
2023/05/20 11:13:14;;;;;;;3.08;0.88;;;;;;;20.30;27.95;102510.34;5063916;28;20408;-72
2023/05/20 11:15:43;;;;;;;2.88;0.60;;;;;;;20.68;25.69;102509.13;5054460;28;20048;-71
2023/05/20 11:18:13;;;;;;;;;;;;;;;20.74;27.09;102503.47;5050564;28;20078;-71
2023/05/20 11:20:49;;;;;;;4.10;1.08;;;;;;;21.18;25.09;102492.06;5057710;28;19912;-71
2023/05/20 11:23:22;;;;;;;5.60;1.40;;;;;;;21.06;27.30;102492.78;5043794;28;20412;-71
2023/05/20 11:25:53;;;;;;;31.55;5.65;;;;;;;20.60;27.98;102495.47;5063706;28;20028;-71
2023/05/20 11:28:32;;;;;;;7.30;2.15;;;;;;;20.82;26.72;102492.38;5038883;28;20056;-71
2023/05/20 11:31:02;;;;;;;4.60;1.00;;;;;;;20.62;27.19;102488.22;5062005;28;20934;-71
2023/05/20 11:33:47;;;;;;;1.73;0.63;;;;;;;20.60;26.85;102474.22;5065399;28;20040;-70
2023/05/20 11:36:26;;;;;;;8.73;0.88;;;;;;;20.81;25.98;102491.53;5083489;28;20024;-69
2023/05/20 11:38:51;;;;;;;1.98;0.50;;;;;;;20.42;26.74;102481.44;5049702;27;20044;-71
2023/05/20 11:41:25;;;;;;;2.20;0.82;;;;;;;20.93;26.28;102482.91;5060982;28;20071;-68
2023/05/20 11:44:04;;;;;;;6.78;0.88;;;;;;;21.24;25.65;102475.72;5041487;28;20075;-71
2023/05/20 11:46:40;;;;;;;4.10;1.10;;;;;;;21.14;25.69;102483.41;5059168;28;20039;-71
2023/05/20 11:49:11;;;;;;;14.80;2.10;;;;;;;20.82;25.72;102472.00;5065562;28;20515;-71
2023/05/20 11:51:42;;;;;;;26.10;5.70;;;;;;;20.66;25.77;102476.47;5061208;28;20275;-70
2023/05/20 11:54:10;;;;;;;6.80;1.00;;;;;;;20.75;25.45;102478.59;5061744;28;20525;-68
2023/05/20 11:56:49;;;;;;;3.33;0.98;;;;;;;20.45;24.57;102471.47;5063039;28;20051;-70
2023/05/20 11:59:33;;;;;;;3.63;0.85;;;;;;;20.33;26.56;102462.41;5059822;28;20048;-70
2023/05/20 12:02:07;;;;;;;1.80;0.68;;;;;;;21.20;24.44;102458.28;5048154;27;20036;-71
2023/05/20 12:04:40;;;;;;;1.70;0.50;;;;;;;20.92;25.65;102451.94;5063859;28;20070;-70
2023/05/20 12:07:08;;;;;;;2.00;0.40;;;;;;;20.94;23.61;102444.72;5069235;27;20051;-71